createdAt,value
2022-09-01T00:00:49.473Z,0
2022-09-01T00:01:50.406Z,0
2022-09-01T00:02:51.512Z,0
2022-09-01T00:03:52.631Z,0
2022-09-01T00:04:53.410Z,0.39
2022-09-01T00:05:54.647Z,0.12
2022-09-01T00:06:56.420Z,0.15
2022-09-01T00:07:57.424Z,0.39
2022-09-01T00:08:58.424Z,0.14
2022-09-01T00:09:59.425Z,0
2022-09-01T00:11:00.453Z,0
2022-09-01T00:12:01.462Z,0
2022-09-01T00:13:02.648Z,0
2022-09-01T00:14:04.419Z,0.18
2022-09-01T00:15:05.440Z,0.12
2022-09-01T00:16:06.557Z,0
2022-09-01T00:17:08.438Z,0
2022-09-01T00:18:09.639Z,0.21
2022-09-01T00:19:11.452Z,0.17
2022-09-01T00:20:14.128Z,0.13
2022-09-01T00:21:13.460Z,0
2022-09-01T00:22:14.480Z,0
2022-09-01T00:23:15.437Z,0
2022-09-01T00:24:16.439Z,0.22
2022-09-01T00:25:17.442Z,0.23
2022-09-01T00:26:18.464Z,0.12
2022-09-01T00:27:19.453Z,0.18
2022-09-01T00:28:20.568Z,0.24
2022-09-01T00:29:21.469Z,0.13
2022-09-01T00:30:22.534Z,0.24
2022-09-01T00:31:23.518Z,0.21
2022-09-01T00:32:24.451Z,0.11
2022-09-01T00:33:25.450Z,0.54
2022-09-01T00:34:26.483Z,0.3
2022-09-01T00:35:27.461Z,0.14
2022-09-01T00:36:28.454Z,0
2022-09-01T00:37:29.489Z,0.18
2022-09-01T00:38:30.494Z,0.13
2022-09-01T00:39:31.458Z,0.1
2022-09-01T00:40:33.610Z,0.22
2022-09-01T00:41:34.484Z,0.06
2022-09-01T00:42:35.927Z,0
2022-09-01T00:43:37.824Z,0.27
2022-09-01T00:44:39.691Z,0.12
2022-09-01T00:45:41.718Z,0.09
2022-09-01T00:46:47.843Z,0.24
2022-09-01T00:47:45.645Z,0
2022-09-01T00:48:47.645Z,0.14
2022-09-01T00:49:49.650Z,0.17
2022-09-01T00:50:54.640Z,0.19
2022-09-01T00:51:53.707Z,0
2022-09-01T00:52:55.884Z,0
2022-09-01T00:53:57.731Z,0.11
2022-09-01T00:54:59.709Z,0.14
2022-09-01T00:56:01.669Z,0.27
2022-09-01T00:57:03.725Z,0.25
2022-09-01T00:58:05.644Z,0.23
2022-09-01T00:59:08.019Z,0.11
2022-09-01T01:00:09.706Z,0.19
2022-09-01T01:01:11.797Z,0
2022-09-01T01:02:13.769Z,0.12
2022-09-01T01:03:15.697Z,0.2
2022-09-01T01:04:17.716Z,0.23
2022-09-01T01:05:19.733Z,0.19
2022-09-01T01:06:21.790Z,0.14
2022-09-01T01:07:23.722Z,0
2022-09-01T01:08:25.821Z,0
2022-09-01T01:09:27.695Z,0
2022-09-01T01:10:29.903Z,0.19
2022-09-01T01:11:31.987Z,0.17
2022-09-01T01:12:33.617Z,0
2022-09-01T01:13:35.747Z,0
2022-09-01T01:14:37.651Z,0
2022-09-01T01:15:39.655Z,0.18
2022-09-01T01:16:41.886Z,0.24
2022-09-01T01:17:43.684Z,0.22
2022-09-01T01:18:45.857Z,0.17
2022-09-01T01:19:47.548Z,0
2022-09-01T01:20:48.547Z,0.28
2022-09-01T01:21:49.526Z,0.23
2022-09-01T01:22:50.545Z,0.16
2022-09-01T01:23:51.556Z,0
2022-09-01T01:24:52.539Z,0.23
2022-09-01T01:25:53.562Z,0.23
2022-09-01T01:26:54.535Z,0.07
2022-09-01T01:27:55.587Z,0.18
2022-09-01T01:28:57.721Z,0.21
2022-09-01T01:29:59.603Z,0.15
2022-09-01T01:31:00.645Z,0.19
2022-09-01T01:32:01.571Z,0.19
2022-09-01T01:33:02.549Z,0.2
2022-09-01T01:34:03.546Z,0
2022-09-01T01:35:04.602Z,0
2022-09-01T01:36:05.566Z,0.36
2022-09-01T01:37:06.555Z,0.14
2022-09-01T01:38:07.545Z,0.07
2022-09-01T01:39:08.565Z,0.25
2022-09-01T01:40:09.609Z,0.04
2022-09-01T01:41:10.556Z,0.23
2022-09-01T01:42:11.593Z,0.16
2022-09-01T01:43:12.588Z,0.34
2022-09-01T01:44:13.562Z,0.08
2022-09-01T01:45:14.577Z,0.29
2022-09-01T01:46:15.637Z,0
2022-09-01T01:47:16.629Z,0.17
2022-09-01T01:48:17.566Z,0.29
2022-09-01T01:49:18.562Z,0.08
2022-09-01T01:50:19.569Z,0
2022-09-01T01:51:20.574Z,0
2022-09-01T01:52:21.617Z,0
2022-09-01T01:53:22.592Z,0.25
2022-09-01T01:54:23.602Z,0.22
2022-09-01T01:55:24.582Z,0.2
2022-09-01T01:56:25.597Z,0.17
2022-09-01T01:57:26.609Z,0.21
2022-09-01T01:58:27.580Z,0.3
2022-09-01T01:59:28.591Z,0.23
2022-09-01T02:00:30.330Z,0.29
2022-09-01T02:01:30.679Z,0.35
2022-09-01T02:02:31.625Z,0.31
2022-09-01T02:03:32.653Z,0.36
2022-09-01T02:04:33.611Z,0.23
2022-09-01T02:05:34.596Z,0.2
2022-09-01T02:06:35.594Z,0.25
2022-09-01T02:07:36.598Z,0
2022-09-01T02:08:37.624Z,0.26
2022-09-01T02:09:38.587Z,0.23
2022-09-01T02:10:39.611Z,0.22
2022-09-01T02:11:40.602Z,0.27
2022-09-01T02:12:41.632Z,0.49
2022-09-01T02:13:42.696Z,0.12
2022-09-01T02:14:43.609Z,0.18
2022-09-01T02:15:44.618Z,0
2022-09-01T02:16:45.675Z,0.13
2022-09-01T02:17:46.633Z,0.17
2022-09-01T02:18:47.668Z,0.3
2022-09-01T02:19:48.618Z,0.31
2022-09-01T02:20:49.635Z,0.13
2022-09-01T02:21:50.636Z,0.12
2022-09-01T02:22:51.658Z,0.24
2022-09-01T02:23:52.654Z,0.1
2022-09-01T02:24:53.632Z,0.33
2022-09-01T02:26:14.924Z,0.52
2022-09-01T02:26:55.635Z,0.16
2022-09-01T02:27:56.627Z,0.72
2022-09-01T02:28:57.658Z,0.31
2022-09-01T02:29:58.656Z,0.74
2022-09-01T02:30:59.774Z,0.58
2022-09-01T02:32:00.622Z,0.45
2022-09-01T02:33:01.685Z,0.46
2022-09-01T02:34:02.688Z,0.32
2022-09-01T02:35:03.634Z,0.27
2022-09-01T02:36:04.641Z,0.22
2022-09-01T02:37:05.649Z,0.26
2022-09-01T02:38:06.631Z,0.31
2022-09-01T02:39:08.103Z,0.43
2022-09-01T02:40:08.715Z,0.31
2022-09-01T02:41:09.707Z,0.38
2022-09-01T02:42:10.657Z,0.28
2022-09-01T02:43:11.658Z,0.21
2022-09-01T02:44:12.641Z,0.35
2022-09-01T02:45:13.671Z,0.3
2022-09-01T02:46:14.832Z,0.31
2022-09-01T02:47:15.663Z,0.26
2022-09-01T02:48:16.762Z,0.41
2022-09-01T02:49:17.698Z,0.39
2022-09-01T02:50:18.703Z,0.26
2022-09-01T02:51:19.685Z,0.27
2022-09-01T02:52:20.671Z,0
2022-09-01T02:53:21.701Z,0
2022-09-01T02:54:22.743Z,0.19
2022-09-01T02:55:23.661Z,0.5
2022-09-01T02:56:25.179Z,0.21
2022-09-01T02:57:25.686Z,0.21
2022-09-01T02:58:26.933Z,0.05
2022-09-01T02:59:29.028Z,0
2022-09-01T03:00:30.922Z,0.21
2022-09-01T03:01:33.087Z,0.39
2022-09-01T03:02:34.964Z,0
2022-09-01T03:03:36.873Z,0.19
2022-09-01T03:04:39.179Z,0.15
2022-09-01T03:05:41.054Z,0.1
2022-09-01T03:06:42.955Z,0.16
2022-09-01T03:07:44.986Z,0.26
2022-09-01T03:08:47.900Z,0.28
2022-09-01T03:09:49.885Z,0.12
2022-09-01T03:10:52.089Z,0.11
2022-09-01T03:11:53.995Z,0
2022-09-01T03:12:55.917Z,0.3
2022-09-01T03:13:57.942Z,0.32
2022-09-01T03:15:00.088Z,0.22
2022-09-01T03:16:01.913Z,0.36
2022-09-01T03:17:03.958Z,0.37
2022-09-01T03:18:05.722Z,0.28
2022-09-01T03:19:07.244Z,0.22
2022-09-01T03:20:09.043Z,0.38
2022-09-01T03:21:10.909Z,0.39
2022-09-01T03:22:12.953Z,0.39
2022-09-01T03:23:14.909Z,0.25
2022-09-01T03:24:16.988Z,0.11
2022-09-01T03:25:18.975Z,0.29
2022-09-01T03:26:21.034Z,0.53
2022-09-01T03:27:23.068Z,0.42
2022-09-01T03:28:24.819Z,0.51
2022-09-01T03:29:25.955Z,0.29
2022-09-01T03:30:27.888Z,0.35
2022-09-01T03:31:31.097Z,0
2022-09-01T03:32:31.866Z,0.15
2022-09-01T03:33:33.884Z,0.44
2022-09-01T03:34:35.871Z,0.24
2022-09-01T03:35:38.090Z,0.29
2022-09-01T03:36:40.192Z,0.47
2022-09-01T03:37:42.302Z,0.26
2022-09-01T03:38:43.798Z,0.37
2022-09-01T03:39:44.784Z,0.11
2022-09-01T03:40:45.812Z,0.2
2022-09-01T03:41:46.801Z,0.28
2022-09-01T03:42:47.739Z,0.3
2022-09-01T03:43:48.765Z,0.14
2022-09-01T03:44:49.760Z,0.24
2022-09-01T03:45:50.817Z,0.26
2022-09-01T03:46:51.781Z,0.2
2022-09-01T03:47:52.757Z,0.29
2022-09-01T03:48:53.748Z,0.54
2022-09-01T03:49:54.766Z,0.08
2022-09-01T03:50:55.809Z,0
2022-09-01T03:51:56.791Z,0
2022-09-01T03:52:58.932Z,0.17
2022-09-01T03:54:00.807Z,0.21
2022-09-01T03:55:01.818Z,0.1
2022-09-01T03:56:02.772Z,0.05
2022-09-01T03:57:03.955Z,0.22
2022-09-01T03:58:05.788Z,0.19
2022-09-01T03:59:07.622Z,0.32
2022-09-01T04:00:07.837Z,0.36
2022-09-01T04:01:11.102Z,0.23
2022-09-01T04:02:10.850Z,0.13
2022-09-01T04:03:11.795Z,0
2022-09-01T04:04:12.803Z,0.35
2022-09-01T04:05:13.793Z,0.4
2022-09-01T04:06:14.790Z,0
2022-09-01T04:07:19.245Z,0.15
2022-09-01T04:08:16.816Z,0.47
2022-09-01T04:09:17.812Z,0
2022-09-01T04:10:18.786Z,0
2022-09-01T04:11:19.801Z,0.39
2022-09-01T04:12:20.811Z,0
2022-09-01T04:13:21.851Z,0
2022-09-01T04:14:22.837Z,0.09
2022-09-01T04:15:23.825Z,0.19
2022-09-01T04:16:24.911Z,0
2022-09-01T04:17:29.974Z,0
2022-09-01T04:18:26.829Z,0.44
2022-09-01T04:19:27.832Z,0.13
2022-09-01T04:20:28.810Z,0
2022-09-01T04:21:29.843Z,0.57
2022-09-01T04:22:30.807Z,0.23
2022-09-01T04:23:31.850Z,0.16
2022-09-01T04:24:32.843Z,0.3
2022-09-01T04:25:33.832Z,0.08
2022-09-01T04:26:34.818Z,0
2022-09-01T04:27:35.892Z,0.36
2022-09-01T04:28:36.825Z,0
2022-09-01T04:29:38.365Z,0
2022-09-01T04:30:38.863Z,0
2022-09-01T04:31:39.848Z,0
2022-09-01T04:32:40.852Z,0.5
2022-09-01T04:33:41.822Z,0.23
2022-09-01T04:34:42.861Z,0
2022-09-01T04:35:43.834Z,0
2022-09-01T04:36:44.878Z,0
2022-09-01T04:37:45.850Z,0.24
2022-09-01T04:38:46.838Z,0.16
2022-09-01T04:39:49.639Z,0.16
2022-09-01T04:40:48.895Z,0
2022-09-01T04:41:49.857Z,0
2022-09-01T04:42:50.868Z,0
2022-09-01T04:43:51.861Z,0
2022-09-01T04:44:52.872Z,0
2022-09-01T04:45:53.999Z,0
2022-09-01T04:46:54.858Z,0
2022-09-01T04:47:55.864Z,0.24
2022-09-01T04:48:56.848Z,0.1
2022-09-01T04:49:57.878Z,0
2022-09-01T04:50:58.876Z,0
2022-09-01T04:51:59.882Z,0
2022-09-01T04:53:00.859Z,0
2022-09-01T04:54:02.017Z,0
2022-09-01T04:55:03.906Z,0.35
2022-09-01T04:56:04.889Z,0.17
2022-09-01T04:57:05.936Z,0
2022-09-01T04:58:10.012Z,0
2022-09-01T04:59:07.910Z,0
2022-09-01T05:00:08.878Z,0.52
2022-09-01T05:01:10.055Z,0
2022-09-01T05:02:11.110Z,0
2022-09-01T05:03:12.882Z,0
2022-09-01T05:04:13.877Z,0
2022-09-01T05:05:14.883Z,0
2022-09-01T05:06:15.890Z,0
2022-09-01T05:07:16.933Z,0.25
2022-09-01T05:08:18.128Z,0.11
2022-09-01T05:09:18.893Z,0.67
2022-09-01T05:10:19.884Z,0.13
2022-09-01T05:11:20.909Z,0.11
2022-09-01T05:12:21.945Z,0
2022-09-01T05:13:22.901Z,0.22
2022-09-01T05:14:23.962Z,0.05
2022-09-01T05:15:24.911Z,0.2
2022-09-01T05:16:25.975Z,0.19
2022-09-01T05:17:26.898Z,0.24
2022-09-01T05:18:27.893Z,0
2022-09-01T05:19:28.946Z,0.19
2022-09-01T05:20:29.903Z,0.09
2022-09-01T05:21:30.896Z,0.17
2022-09-01T05:22:31.909Z,0.08
2022-09-01T05:23:32.934Z,0.06
2022-09-01T05:24:35.604Z,0.18
2022-09-01T05:25:34.917Z,0
2022-09-01T05:26:35.985Z,0
2022-09-01T05:27:36.957Z,0.33
2022-09-01T05:28:37.936Z,0.54
2022-09-01T05:29:38.928Z,0.17
2022-09-01T05:30:39.927Z,0.61
2022-09-01T05:31:40.970Z,0.16
2022-09-01T05:32:41.927Z,0.07
2022-09-01T05:33:42.941Z,0.06
2022-09-01T05:34:44.059Z,0.39
2022-09-01T05:35:45.930Z,0.21
2022-09-01T05:36:46.930Z,0.11
2022-09-01T05:37:47.929Z,0
2022-09-01T05:38:48.980Z,0
2022-09-01T05:39:50.133Z,0.3
2022-09-01T05:40:52.004Z,0.31
2022-09-01T05:41:52.942Z,0.26
2022-09-01T05:42:53.969Z,0.26
2022-09-01T05:43:59.542Z,0.32
2022-09-01T05:44:55.968Z,0.31
2022-09-01T05:46:06.389Z,0.21
2022-09-01T05:46:57.973Z,0.21
2022-09-01T05:47:58.948Z,0.23
2022-09-01T05:48:59.977Z,0.2
2022-09-01T05:50:00.963Z,0.25
2022-09-01T05:51:01.973Z,0.38
2022-09-01T05:52:02.967Z,0.38
2022-09-01T05:53:03.998Z,0.42
2022-09-01T05:54:04.970Z,0.28
2022-09-01T05:55:05.978Z,0.34
2022-09-01T05:56:06.994Z,0.45
2022-09-01T05:57:23.734Z,0.23
2022-09-01T05:58:08.962Z,0.4
2022-09-01T05:59:26.151Z,0.16
2022-09-01T06:00:11.265Z,0
2022-09-01T06:01:11.980Z,0.06
2022-09-01T06:02:13.376Z,0.23
2022-09-01T06:03:15.196Z,0.06
2022-09-01T06:04:15.966Z,0.64
2022-09-01T06:05:16.982Z,0.17
2022-09-01T06:06:17.986Z,0.2
2022-09-01T06:07:25.190Z,0.19
2022-09-01T06:08:20.006Z,0.14
2022-09-01T06:09:21.014Z,0.21
2022-09-01T06:10:22.053Z,0.11
2022-09-01T06:11:22.992Z,0.28
2022-09-01T06:12:24.136Z,0.23
2022-09-01T06:13:25.763Z,0.16
2022-09-01T06:14:26.026Z,0.07
2022-09-01T06:15:27.022Z,0
2022-09-01T06:16:28.035Z,0.3
2022-09-01T06:17:28.988Z,0.26
2022-09-01T06:18:29.998Z,0.23
2022-09-01T06:19:34.888Z,0.45
2022-09-01T06:20:32.017Z,0.12
2022-09-01T06:21:33.004Z,0.34
2022-09-01T06:22:34.035Z,0
2022-09-01T06:23:35.006Z,0
2022-09-01T06:24:36.042Z,0.7
2022-09-01T06:25:37.011Z,0.14
2022-09-01T06:26:38.028Z,0
2022-09-01T06:27:39.015Z,0.3
2022-09-01T06:28:40.063Z,0.3
2022-09-01T06:29:41.037Z,0.2
2022-09-01T06:30:42.048Z,0.26
2022-09-01T06:31:43.103Z,0.29
2022-09-01T06:32:44.059Z,0.13
2022-09-01T06:33:45.053Z,0
2022-09-01T06:34:46.057Z,0.14
2022-09-01T06:35:47.050Z,0.29
2022-09-01T06:36:48.017Z,0.39
2022-09-01T06:37:50.946Z,0.39
2022-09-01T06:38:54.660Z,0.15
2022-09-01T06:39:56.101Z,0
2022-09-01T06:40:57.123Z,0.64
2022-09-01T06:41:58.039Z,0.1
2022-09-01T06:42:59.030Z,0.49
2022-09-01T06:44:00.041Z,0.21
2022-09-01T06:45:01.044Z,0.4
2022-09-01T06:46:02.463Z,0.21
2022-09-01T06:47:04.203Z,0.43
2022-09-01T06:48:06.160Z,0.24
2022-09-01T06:49:08.046Z,0.28
2022-09-01T06:50:09.051Z,0
2022-09-01T06:51:20.065Z,0.48
2022-09-01T06:52:11.047Z,0.41
2022-09-01T06:54:14.138Z,0
2022-09-01T06:55:14.080Z,0.53
2022-09-01T06:56:15.062Z,0.36
2022-09-01T06:58:17.150Z,0
2022-09-01T06:59:18.070Z,0.25
2022-09-01T07:00:19.407Z,0.07
2022-09-01T07:01:20.518Z,0.38
2022-09-01T07:02:24.530Z,0.07
2022-09-01T07:03:24.082Z,0.08
2022-09-01T07:04:25.297Z,0.31
2022-09-01T07:08:29.098Z,0.35
2022-09-01T07:09:44.551Z,0.29
2022-09-01T07:10:31.123Z,0.91
2022-09-01T07:12:34.255Z,0.3
2022-09-01T07:13:34.317Z,0.21
2022-09-01T07:16:30.058Z,0.11
2022-09-01T07:16:40.289Z,0.18
2022-09-01T07:17:39.103Z,0
2022-09-01T07:18:40.121Z,0
2022-09-01T07:19:48.758Z,0.38
2022-09-01T07:21:02.636Z,0.18
2022-09-01T07:22:06.595Z,0.4
2022-09-01T07:24:46.143Z,0.04
2022-09-01T07:26:02.160Z,0.23
2022-09-01T07:26:48.131Z,0.15
2022-09-01T07:27:49.180Z,0.34
2022-09-01T07:28:50.150Z,0.1
2022-09-01T07:29:51.113Z,0.14
2022-09-01T07:30:52.127Z,0.27
2022-09-01T07:32:43.525Z,0.21
2022-09-01T07:32:54.186Z,0.14
2022-09-01T07:33:55.483Z,0.13
2022-09-01T07:34:56.209Z,0.53
2022-09-01T07:42:58.509Z,0.12
2022-09-01T07:44:05.153Z,0.25
2022-09-01T07:46:37.488Z,0.62
2022-09-01T07:47:52.224Z,0.37
2022-09-01T07:48:09.207Z,0.51
2022-09-01T07:50:24.992Z,0.37
2022-09-01T07:52:13.187Z,0.41
2022-09-01T07:53:14.173Z,0.41
2022-09-01T07:54:15.245Z,0.49
2022-09-01T07:55:16.195Z,0.43
2022-09-01T07:56:17.166Z,0.49
2022-09-01T07:57:18.167Z,0.23
2022-09-01T07:58:19.181Z,0.29
2022-09-01T07:59:20.205Z,0.88
2022-09-01T08:00:21.173Z,0.56
2022-09-01T08:01:22.236Z,1.13
2022-09-01T08:02:23.231Z,0.31
2022-09-01T08:03:24.301Z,0.34
2022-09-01T08:04:25.192Z,0.31
2022-09-01T08:05:26.223Z,0.33
2022-09-01T08:06:28.057Z,0.22
2022-09-01T08:07:28.191Z,0.4
2022-09-01T08:08:29.660Z,0.15
2022-09-01T08:09:37.938Z,0.27
2022-09-01T08:10:31.196Z,0.22
2022-09-01T08:11:58.502Z,0.33
2022-09-01T08:12:33.210Z,0.34
2022-09-01T08:13:37.258Z,0.23
2022-09-01T08:14:35.203Z,0.56
2022-09-01T08:15:40.818Z,0.29
2022-09-01T08:16:51.755Z,0.9
2022-09-01T08:17:53.647Z,0.6
2022-09-01T08:18:54.342Z,1.29
2022-09-01T08:19:40.208Z,0.82
2022-09-01T08:20:42.252Z,0.34
2022-09-01T08:21:43.212Z,0.28
2022-09-01T08:22:44.224Z,0.37
2022-09-01T08:23:45.282Z,0.12
2022-09-01T08:24:46.202Z,0.36
2022-09-01T08:25:47.232Z,0.33
2022-09-01T08:26:48.247Z,0.38
2022-09-01T08:27:49.274Z,0.48
2022-09-01T08:28:54.873Z,0.26
2022-09-01T08:29:51.277Z,0.38
2022-09-01T08:30:52.836Z,0.04
2022-09-01T08:31:53.305Z,0.16
2022-09-01T08:32:54.280Z,0.31
2022-09-01T08:33:55.274Z,0.35
2022-09-01T08:34:56.269Z,0.92
2022-09-01T08:35:57.260Z,0.63
2022-09-01T08:36:58.258Z,0.51
2022-09-01T08:37:59.298Z,0.44
2022-09-01T08:39:00.283Z,1
2022-09-01T08:40:01.913Z,1.16
2022-09-01T08:41:02.372Z,0.35
2022-09-01T08:42:03.325Z,0.47
2022-09-01T08:43:04.297Z,0.39
2022-09-01T08:44:05.253Z,0.81
2022-09-01T08:45:06.746Z,0.59
2022-09-01T08:46:08.335Z,0.49
2022-09-01T08:47:11.969Z,0.43
2022-09-01T08:49:27.481Z,0.36
2022-09-01T08:50:12.336Z,0.6
2022-09-01T08:51:19.934Z,0.6
2022-09-01T08:52:17.289Z,0.46
2022-09-01T08:53:18.309Z,0.24
2022-09-01T08:54:22.653Z,0.34
2022-09-01T08:55:20.309Z,0.52
2022-09-01T08:56:21.286Z,0.73
2022-09-01T08:57:22.326Z,0.83
2022-09-01T08:58:23.395Z,0.81
2022-09-01T08:59:24.935Z,1.2
2022-09-01T09:00:25.299Z,0.53
2022-09-01T09:01:26.325Z,0.36
2022-09-01T09:02:27.326Z,0.86
2022-09-01T09:03:40.375Z,0.98
2022-09-01T09:04:29.318Z,0.46
2022-09-01T09:05:30.645Z,1.37
2022-09-01T09:06:32.302Z,0.62
2022-09-01T09:07:33.306Z,0.45
2022-09-01T09:08:34.303Z,0.43
2022-09-01T09:09:35.317Z,0.73
2022-09-01T09:10:36.339Z,0.26
2022-09-01T09:11:37.395Z,0.24
2022-09-01T09:12:48.853Z,0.55
2022-09-01T09:13:39.314Z,0.8
2022-09-01T09:14:40.309Z,0.49
2022-09-01T09:15:41.506Z,0.54
2022-09-01T09:16:42.315Z,0.44
2022-09-01T09:17:43.321Z,0.52
2022-09-01T09:18:57.332Z,0.5
2022-09-01T09:19:45.308Z,0.34
2022-09-01T09:20:46.362Z,0.23
2022-09-01T09:21:47.474Z,0.19
2022-09-01T09:22:48.385Z,0.35
2022-09-01T09:23:49.335Z,0.81
2022-09-01T09:24:50.514Z,0.26
2022-09-01T09:25:51.386Z,0.52
2022-09-01T09:26:52.373Z,0.7
2022-09-01T09:28:00.956Z,0.71
2022-09-01T09:28:54.341Z,0.79
2022-09-01T09:29:55.441Z,0.55
2022-09-01T09:30:57.947Z,0.64
2022-09-01T09:31:58.359Z,0.35
2022-09-01T09:33:59.688Z,0.21
2022-09-01T09:35:00.358Z,0.33
2022-09-01T09:36:01.401Z,0.21
2022-09-01T09:37:02.017Z,0.17
2022-09-01T09:38:03.384Z,0.42
2022-09-01T09:39:04.356Z,0.69
2022-09-01T09:40:05.417Z,0.45
2022-09-01T09:41:26.789Z,0.45
2022-09-01T09:42:07.382Z,0.92
2022-09-01T09:43:08.359Z,0.73
2022-09-01T09:44:11.334Z,0.68
2022-09-01T09:45:10.366Z,0.4
2022-09-01T09:46:23.077Z,0.79
2022-09-01T09:47:27.383Z,0.59
2022-09-01T09:48:13.362Z,0.45
2022-09-01T09:49:14.677Z,0.42
2022-09-01T09:50:15.396Z,0.8
2022-09-01T09:51:16.409Z,0.4
2022-09-01T09:52:17.431Z,0.6
2022-09-01T09:53:18.387Z,1.25
2022-09-01T09:54:19.397Z,0.45
2022-09-01T09:55:20.372Z,0.41
2022-09-01T09:56:21.408Z,0.93
2022-09-01T09:57:22.425Z,0.62
2022-09-01T09:58:23.387Z,0.59
2022-09-01T09:59:39.764Z,0.71
2022-09-01T10:00:25.881Z,0.99
2022-09-01T10:01:26.519Z,0.47
2022-09-01T10:02:27.810Z,0.7
2022-09-01T10:03:29.051Z,0.58
2022-09-01T10:04:29.512Z,0.51
2022-09-01T10:05:30.570Z,0.51
2022-09-01T10:06:31.482Z,0.38
2022-09-01T10:07:32.403Z,0.6
2022-09-01T10:08:33.464Z,0.51
2022-09-01T10:09:34.408Z,0.39
2022-09-01T10:10:35.422Z,0.84
2022-09-01T10:11:36.448Z,1.39
2022-09-01T10:12:37.420Z,0.95
2022-09-01T10:13:38.454Z,0.72
2022-09-01T10:14:54.425Z,0.84
2022-09-01T10:15:40.428Z,1
2022-09-01T10:16:41.479Z,0.56
2022-09-01T10:17:43.502Z,0.47
2022-09-01T10:18:43.458Z,0.48
2022-09-01T10:19:44.470Z,0.9
2022-09-01T10:20:45.431Z,1.49
2022-09-01T10:21:46.433Z,1.01
2022-09-01T10:22:48.326Z,0.49
2022-09-01T10:23:48.455Z,0.55
2022-09-01T10:24:50.233Z,0.31
2022-09-01T10:25:50.464Z,0.77
2022-09-01T10:26:51.443Z,0.85
2022-09-01T10:27:54.209Z,0.99
2022-09-01T10:28:53.459Z,0.57
2022-09-01T10:30:12.006Z,0.7
2022-09-01T10:30:55.491Z,0.74
2022-09-01T10:32:15.048Z,0.81
2022-09-01T10:33:00.543Z,1.01
2022-09-01T10:33:58.738Z,0.61
2022-09-01T10:34:59.901Z,0.65
2022-09-01T10:36:00.468Z,0.58
2022-09-01T10:37:01.483Z,0.41
2022-09-01T10:38:02.536Z,0.64
2022-09-01T10:39:06.070Z,0.85
2022-09-01T10:40:04.526Z,0.37
2022-09-01T10:41:05.573Z,0.5
2022-09-01T10:42:06.498Z,1.02
2022-09-01T10:43:12.369Z,0.63
2022-09-01T10:44:08.488Z,0.55
2022-09-01T10:45:09.012Z,0.11
2022-09-01T10:46:15.578Z,0.28
2022-09-01T10:47:15.037Z,0.59
2022-09-01T10:48:13.190Z,0.95
2022-09-01T10:49:13.493Z,0.71
2022-09-01T10:50:14.533Z,0.88
2022-09-01T10:51:18.992Z,0.63
2022-09-01T10:52:16.540Z,0.46
2022-09-01T10:53:17.516Z,0.72
2022-09-01T10:54:18.504Z,0.97
2022-09-01T10:55:24.419Z,0.59
2022-09-01T10:56:28.251Z,0.29
2022-09-01T10:57:26.761Z,0.46
2022-09-01T10:59:31.995Z,0.62
2022-09-01T11:00:40.368Z,1.58
2022-09-01T11:01:47.077Z,1.85
2022-09-01T11:02:28.341Z,0.88
2022-09-01T11:03:31.446Z,0.76
2022-09-01T11:04:28.643Z,1.08
2022-09-01T11:05:33.195Z,0.67
2022-09-01T11:06:33.123Z,1.39
2022-09-01T11:07:50.176Z,0.94
2022-09-01T11:08:32.553Z,0.75
2022-09-01T11:09:33.540Z,0.81
2022-09-01T11:10:34.887Z,0.66
2022-09-01T11:11:35.552Z,0.47
2022-09-01T11:12:36.565Z,0.47
2022-09-01T11:13:37.558Z,0.56
2022-09-01T11:14:37.900Z,0.37
2022-09-01T11:15:39.557Z,0.51
2022-09-01T11:16:49.172Z,0.49
2022-09-01T11:17:42.045Z,0.29
2022-09-01T11:18:43.542Z,0.37
2022-09-01T11:19:44.396Z,0.33
2022-09-01T11:20:45.784Z,0.63
2022-09-01T11:21:46.769Z,0.57
2022-09-01T11:22:47.578Z,0.48
2022-09-01T11:23:48.554Z,0.52
2022-09-01T11:24:54.533Z,0.64
2022-09-01T11:26:18.936Z,0.63
2022-09-01T11:26:51.552Z,0.59
2022-09-01T11:27:52.617Z,0.64
2022-09-01T11:28:53.559Z,0.61
2022-09-01T11:29:55.526Z,0.79
2022-09-01T11:30:55.658Z,0.56
2022-09-01T11:31:56.598Z,0.36
2022-09-01T11:32:57.590Z,0.65
2022-09-01T11:33:58.637Z,0.42
2022-09-01T11:34:59.601Z,0.63
2022-09-01T11:36:00.592Z,1.11
2022-09-01T11:37:01.599Z,0.84
2022-09-01T11:38:02.611Z,1.38
2022-09-01T11:39:03.577Z,1.17
2022-09-01T11:40:04.754Z,0.69
2022-09-01T11:41:05.599Z,0.58
2022-09-01T11:42:06.022Z,0.44
2022-09-01T11:43:07.001Z,0.41
2022-09-01T11:44:07.975Z,0.17
2022-09-01T11:45:09.597Z,0.2
2022-09-01T11:46:11.361Z,0.34
2022-09-01T11:47:14.467Z,0.44
2022-09-01T11:48:13.588Z,0.51
2022-09-01T11:49:14.606Z,0.62
2022-09-01T11:50:15.635Z,0.8
2022-09-01T11:51:16.627Z,0.49
2022-09-01T11:52:17.609Z,0.42
2022-09-01T11:53:18.646Z,0.58
2022-09-01T11:54:19.589Z,0.49
2022-09-01T11:55:20.619Z,0.7
2022-09-01T11:56:21.693Z,0.51
2022-09-01T11:57:22.656Z,0.49
2022-09-01T11:58:23.603Z,0.59
2022-09-01T11:59:24.602Z,0.47
2022-09-01T12:00:25.625Z,0.64
2022-09-01T12:01:26.048Z,0.19
2022-09-01T12:02:27.164Z,0.26
2022-09-01T12:03:28.072Z,0.28
2022-09-01T12:04:28.986Z,0.15
2022-09-01T12:05:30.630Z,1.14
2022-09-01T12:06:31.641Z,1.17
2022-09-01T12:07:32.642Z,0.37
2022-09-01T12:08:32.999Z,0.5
2022-09-01T12:09:34.624Z,0.81
2022-09-01T12:10:35.628Z,1.23
2022-09-01T12:11:36.690Z,0.97
2022-09-01T12:12:37.657Z,1
2022-09-01T12:13:38.645Z,0.56
2022-09-01T12:15:02.333Z,0.3
2022-09-01T12:15:50.365Z,0.88
2022-09-01T12:16:41.739Z,0.73
2022-09-01T12:17:42.632Z,0.26
2022-09-01T12:18:43.639Z,0.55
2022-09-01T12:19:44.634Z,0.67
2022-09-01T12:20:45.101Z,0.35
2022-09-01T12:21:46.716Z,0.5
2022-09-01T12:22:47.053Z,0.23
2022-09-01T12:23:48.067Z,0.37
2022-09-01T12:24:49.094Z,0.33
2022-09-01T12:25:50.027Z,0.33
2022-09-01T12:26:51.063Z,0.5
2022-09-01T12:27:52.681Z,0.82
2022-09-01T12:28:53.739Z,0.43
2022-09-01T12:29:54.667Z,1.25
2022-09-01T12:30:55.695Z,1.1
2022-09-01T12:31:56.728Z,0.74
2022-09-01T12:33:58.710Z,0.78
2022-09-01T12:34:59.677Z,0.23
2022-09-01T12:36:00.730Z,0.53
2022-09-01T12:37:01.745Z,0.9
2022-09-01T12:38:03.762Z,0.97
2022-09-01T12:39:03.799Z,0.81
2022-09-01T12:40:05.735Z,0.6
2022-09-01T12:41:06.684Z,0.8
2022-09-01T12:42:07.725Z,0.93
2022-09-01T12:43:08.706Z,1.06
2022-09-01T12:44:09.734Z,1.67
2022-09-01T12:45:10.719Z,0.87
2022-09-01T12:46:11.710Z,0.5
2022-09-01T12:47:12.735Z,0.46
2022-09-01T12:48:13.115Z,0.36
2022-09-01T12:50:16.993Z,1.18
2022-09-01T12:51:16.699Z,1.04
2022-09-01T12:52:19.833Z,0.68
2022-09-01T12:53:18.099Z,0.43
2022-09-01T12:54:21.242Z,0.34
2022-09-01T12:56:21.756Z,0.7
2022-09-01T12:57:22.750Z,0.91
2022-09-01T12:58:23.757Z,0.62
2022-09-01T12:59:26.321Z,0.67
2022-09-01T13:00:27.747Z,0.66
2022-09-01T13:01:28.918Z,0.47
2022-09-01T13:02:29.930Z,0.48
2022-09-01T13:03:30.722Z,0.39
2022-09-01T13:04:31.731Z,0.42
2022-09-01T13:05:36.250Z,0.39
2022-09-01T13:06:33.781Z,0.39
2022-09-01T13:07:34.779Z,0.45
2022-09-01T13:08:37.619Z,0.95
2022-09-01T13:09:37.762Z,0.45
2022-09-01T13:10:38.785Z,0.29
2022-09-01T13:12:40.760Z,0.74
2022-09-01T13:13:42.461Z,0.39
2022-09-01T13:14:42.823Z,0.4
2022-09-01T13:15:43.790Z,0.55
2022-09-01T13:16:44.823Z,0.61
2022-09-01T13:17:45.788Z,0.33
2022-09-01T13:19:48.798Z,0.34
2022-09-01T13:20:49.768Z,0.28
2022-09-01T13:21:50.791Z,0.33
2022-09-01T13:22:51.780Z,0.15
2022-09-01T13:23:52.791Z,0.12
2022-09-01T13:24:53.761Z,0
2022-09-01T13:25:54.765Z,0.37
2022-09-01T13:27:57.619Z,0.38
2022-09-01T13:28:58.818Z,0.21
2022-09-01T13:29:59.231Z,0
2022-09-01T13:32:18.571Z,0.29
2022-09-01T13:33:19.395Z,0.39
2022-09-01T13:34:21.532Z,0.33
2022-09-01T13:35:04.360Z,0.24
2022-09-01T13:36:42.238Z,0.63
2022-09-01T13:37:06.832Z,0.81
2022-09-01T13:38:07.846Z,1.11
2022-09-01T13:39:08.857Z,0.72
2022-09-01T13:40:10.285Z,0.96
2022-09-01T13:41:11.744Z,0.76
2022-09-01T13:42:12.815Z,1.13
2022-09-01T13:43:14.091Z,1.57
2022-09-01T13:44:17.075Z,0.88
2022-09-01T13:45:16.866Z,0.55
2022-09-01T13:46:17.853Z,0.52
2022-09-01T13:47:34.242Z,0.94
2022-09-01T13:48:19.848Z,0.74
2022-09-01T13:50:23.974Z,0.79
2022-09-01T13:51:23.826Z,1.08
2022-09-01T13:52:24.871Z,0.72
2022-09-01T13:53:25.875Z,0.3
2022-09-01T13:54:26.875Z,0.26
2022-09-01T13:55:27.854Z,0.31
2022-09-01T13:56:29.871Z,0.32
2022-09-01T13:57:31.622Z,0.28
2022-09-01T13:58:31.831Z,0.23
2022-09-01T13:59:32.828Z,0.38
2022-09-01T14:00:33.994Z,0.31
2022-09-01T14:01:36.412Z,0.32
2022-09-01T14:02:38.007Z,0.47
2022-09-01T14:03:41.138Z,0.39
2022-09-01T14:04:43.762Z,0.24
2022-09-01T14:05:46.787Z,0.15
2022-09-01T14:06:49.324Z,0.3
2022-09-01T14:07:51.085Z,0.49
2022-09-01T14:08:54.023Z,0.22
2022-09-01T14:09:56.450Z,0.4
2022-09-01T14:10:58.476Z,0.31
2022-09-01T14:12:00.170Z,0.8
2022-09-01T14:13:03.626Z,0.5
2022-09-01T14:14:05.309Z,0.5
2022-09-01T14:15:11.897Z,0.33
2022-09-01T14:16:09.096Z,0.23
2022-09-01T14:17:12.402Z,0.31
2022-09-01T14:18:14.225Z,0.54